Time;durP1;ratioP1;P1;durP2;ratioP2;P2;SDS_P1;SDS_P2;PMS_P1;PMS_P2;Temp;Humidity;BMP_temperature;BMP_pressure;BME280_temperature;BME280_humidity;BME280_pressure;Samples;Min_cycle;Max_cycle;Signal;HPM_P1;HPM_P2
2023/09/09 00:02:05;;;;;;;7.63;7.00;;;26.70;86.30;;;;;;4973073;28;20456;-72
2023/09/09 00:04:36;;;;;;;7.77;7.17;;;26.70;86.40;;;;;;4989317;28;20413;-71
2023/09/09 00:07:06;;;;;;;8.00;7.30;;;26.70;86.40;;;;;;5006750;28;20913;-71
2023/09/09 00:09:32;;;;;;;7.80;7.20;;;26.70;86.40;;;;;;4972586;28;20440;-71
2023/09/09 00:11:58;;;;;;;7.97;7.23;;;26.60;86.30;;;;;;4988570;28;20573;-72
2023/09/09 00:14:25;;;;;;;8.17;7.50;;;26.60;86.30;;;;;;4988638;28;20509;-71
2023/09/09 00:16:54;;;;;;;8.30;7.60;;;26.60;86.30;;;;;;4988728;28;20428;-71
2023/09/09 00:19:24;;;;;;;7.13;6.53;;;26.60;86.30;;;;;;4988979;28;20464;-71
2023/09/09 00:21:51;;;;;;;8.57;7.30;;;26.60;86.40;;;;;;5006142;28;20522;-71
2023/09/09 00:24:19;;;;;;;8.57;7.47;;;26.60;86.30;;;;;;5005150;28;20483;-71
2023/09/09 00:26:45;;;;;;;8.00;6.80;;;26.50;86.20;;;;;;5012894;28;20538;-71
2023/09/09 00:29:11;;;;;;;8.63;7.80;;;26.50;86.30;;;;;;4991255;28;20221;-71
2023/09/09 00:31:37;;;;;;;8.07;7.37;;;26.50;86.30;;;;;;5008536;28;20403;-71
2023/09/09 00:34:03;;;;;;;8.70;7.83;;;26.50;86.30;;;;;;5007437;28;20470;-71
2023/09/09 00:36:32;;;;;;;8.03;7.33;;;26.50;86.30;;;;;;5005055;28;20419;-71
2023/09/09 00:38:59;;;;;;;7.87;7.30;;;26.50;86.40;;;;;;4972673;28;20457;-71
2023/09/09 00:41:28;;;;;;;7.93;7.07;;;26.40;86.20;;;;;;4971586;28;20859;-71
2023/09/09 00:43:54;;;;;;;7.47;6.87;;;26.40;86.20;;;;;;4971492;28;20409;-71
2023/09/09 00:46:21;;;;;;;10.80;7.60;;;26.40;86.30;;;;;;4988123;28;20428;-70
2023/09/09 00:48:50;;;;;;;8.00;7.20;;;26.40;86.20;;;;;;4996382;23;20511;-72
2023/09/09 00:51:16;;;;;;;7.73;7.13;;;26.40;86.20;;;;;;4997683;28;21055;-72
2023/09/09 00:53:44;;;;;;;7.90;7.20;;;26.40;86.20;;;;;;5004322;28;20431;-72
2023/09/09 00:56:13;;;;;;;7.87;7.17;;;26.40;86.20;;;;;;4971361;28;20521;-72
2023/09/09 00:58:41;;;;;;;7.00;6.50;;;26.40;86.20;;;;;;5003931;28;20527;-72
2023/09/09 01:01:09;;;;;;;9.10;7.93;;;26.30;86.20;;;;;;4971681;28;20409;-72
2023/09/09 01:03:40;;;;;;;9.73;7.37;;;26.30;85.80;;;;;;4987567;28;20716;-71
2023/09/09 01:06:06;;;;;;;8.40;7.57;;;26.30;86.10;;;;;;4987454;28;20456;-71
2023/09/09 01:08:32;;;;;;;7.47;6.80;;;26.30;86.20;;;;;;4987043;28;20452;-70
2023/09/09 01:11:01;;;;;;;7.53;6.80;;;26.20;86.90;;;;;;4987926;28;20531;-71
2023/09/09 01:13:29;;;;;;;9.30;8.40;;;26.20;86.10;;;;;;4987911;28;20960;-72
2023/09/09 01:15:56;;;;;;;8.23;7.43;;;26.20;86.10;;;;;;4971811;28;20902;-71
2023/09/09 01:18:23;;;;;;;7.10;6.57;;;26.20;86.10;;;;;;4971585;28;20464;-72
2023/09/09 01:20:58;;;;;;;8.70;7.83;;;26.20;86.10;;;;;;4971406;28;20409;-71
2023/09/09 01:23:26;;;;;;;7.27;6.67;;;26.20;86.10;;;;;;4986736;28;20467;-71
2023/09/09 01:25:52;;;;;;;7.60;6.80;;;26.10;86.00;;;;;;4986797;28;20421;-71
2023/09/09 01:28:22;;;;;;;7.40;6.70;;;26.10;86.10;;;;;;4987465;28;20814;-71
2023/09/09 01:30:51;;;;;;;7.97;7.17;;;26.10;86.10;;;;;;4999994;28;20661;-71
2023/09/09 01:33:17;;;;;;;7.63;6.83;;;26.10;86.00;;;;;;4970763;28;20443;-71
2023/09/09 01:35:45;;;;;;;7.43;6.60;;;26.10;86.10;;;;;;4986555;28;20517;-71
2023/09/09 01:38:11;;;;;;;11.03;7.30;;;26.10;86.10;;;;;;4987124;28;20807;-71
2023/09/09 01:40:38;;;;;;;8.27;7.27;;;26.10;86.10;;;;;;4986907;28;20435;-71
2023/09/09 01:43:05;;;;;;;7.73;7.03;;;26.00;86.00;;;;;;4986785;28;20889;-71
2023/09/09 01:45:32;;;;;;;7.27;6.70;;;26.00;86.00;;;;;;4987355;28;20412;-71
2023/09/09 01:47:58;;;;;;;7.57;6.97;;;26.00;86.00;;;;;;4987066;28;21266;-71
2023/09/09 01:50:25;;;;;;;7.80;7.20;;;26.00;86.80;;;;;;4970836;28;20444;-71
2023/09/09 01:52:51;;;;;;;7.20;6.60;;;26.00;86.10;;;;;;4951272;28;20456;-71
2023/09/09 01:55:17;;;;;;;7.10;6.40;;;26.00;86.10;;;;;;4951802;28;20483;-71
2023/09/09 01:57:43;;;;;;;8.83;7.30;;;25.90;86.00;;;;;;4967707;28;21218;-71
2023/09/09 02:00:10;;;;;;;8.63;7.67;;;25.90;86.00;;;;;;4967313;28;20221;-71
2023/09/09 02:02:39;;;;;;;7.40;6.70;;;25.90;86.00;;;;;;4977417;28;20475;-71
2023/09/09 02:05:05;;;;;;;9.03;7.00;;;25.90;86.00;;;;;;4954463;28;20439;-71
2023/09/09 02:07:31;;;;;;;7.00;6.40;;;25.90;86.00;;;;;;4970590;28;20449;-71
2023/09/09 02:09:57;;;;;;;7.50;6.90;;;25.90;86.00;;;;;;4970271;28;20407;-71
2023/09/09 02:12:34;;;;;;;9.30;7.70;;;25.90;86.00;;;;;;4986680;28;20448;-71
2023/09/09 02:15:04;;;;;;;7.33;6.50;;;25.90;86.00;;;;;;4970362;28;21304;-71
2023/09/09 02:17:32;;;;;;;7.30;6.70;;;25.80;85.80;;;;;;4970027;28;21132;-71
2023/09/09 02:20:01;;;;;;;7.40;6.70;;;25.80;85.80;;;;;;4966696;28;20479;-71
2023/09/09 02:22:29;;;;;;;7.27;6.40;;;25.80;85.90;;;;;;4998440;28;21051;-71
2023/09/09 02:24:56;;;;;;;7.60;6.90;;;25.80;85.80;;;;;;4986525;28;20255;-71
2023/09/09 02:27:23;;;;;;;7.40;6.80;;;25.80;85.80;;;;;;4970013;28;20416;-71
2023/09/09 02:29:52;;;;;;;7.60;6.90;;;25.80;85.80;;;;;;4986483;28;20458;-71
2023/09/09 02:32:19;;;;;;;9.50;6.87;;;25.70;85.70;;;;;;4986300;28;20442;-71
2023/09/09 02:34:54;;;;;;;7.80;6.97;;;25.70;85.70;;;;;;4986693;28;20425;-71
2023/09/09 02:37:24;;;;;;;7.83;7.03;;;25.70;85.70;;;;;;4987026;28;20418;-71
2023/09/09 02:39:52;;;;;;;7.00;6.50;;;25.70;85.70;;;;;;4970806;28;20440;-71
2023/09/09 02:42:21;;;;;;;7.90;7.10;;;25.70;86.50;;;;;;4986066;28;20549;-71
2023/09/09 02:44:50;;;;;;;6.97;6.47;;;25.70;85.60;;;;;;4954632;28;20578;-71
2023/09/09 02:47:17;;;;;;;7.30;6.63;;;25.70;85.60;;;;;;4988957;28;20462;-71
2023/09/09 02:49:43;;;;;;;9.43;6.67;;;25.70;85.50;;;;;;4989740;28;20448;-71
2023/09/09 02:52:10;;;;;;;8.30;7.60;;;25.60;86.30;;;;;;4973821;28;20420;-71
2023/09/09 02:54:38;;;;;;;8.10;7.40;;;25.60;85.50;;;;;;4973631;28;20436;-71
2023/09/09 02:57:04;;;;;;;7.63;6.93;;;25.60;85.50;;;;;;4957784;28;20413;-71
2023/09/09 02:59:33;;;;;;;7.87;6.90;;;25.60;85.40;;;;;;4957893;28;20451;-71
2023/09/09 03:02:00;;;;;;;7.23;6.63;;;25.60;85.50;;;;;;4973705;28;20480;-71
2023/09/09 03:04:31;;;;;;;7.63;7.00;;;25.60;85.50;;;;;;5007499;28;21110;-71
2023/09/09 03:06:57;;;;;;;8.70;6.80;;;25.50;85.40;;;;;;4989890;28;20393;-71
2023/09/09 03:09:25;;;;;;;7.10;6.50;;;25.50;85.40;;;;;;4973892;28;20451;-71
2023/09/09 03:11:53;;;;;;;7.20;6.50;;;25.50;85.30;;;;;;4957563;28;21003;-71
2023/09/09 03:14:20;;;;;;;7.77;7.17;;;25.50;85.40;;;;;;4989423;28;20433;-71
2023/09/09 03:16:47;;;;;;;6.77;6.10;;;25.50;85.40;;;;;;4973790;28;20427;-71
2023/09/09 03:19:13;;;;;;;6.90;6.30;;;25.50;85.40;;;;;;4973265;28;20443;-71
2023/09/09 03:21:44;;;;;;;7.57;6.80;;;25.40;85.30;;;;;;4989966;28;20420;-71
2023/09/09 03:24:13;;;;;;;7.50;6.90;;;25.40;85.40;;;;;;4989261;28;20447;-71
2023/09/09 03:26:39;;;;;;;7.77;7.17;;;25.40;85.30;;;;;;4989506;28;20520;-71
2023/09/09 03:29:07;;;;;;;7.80;7.10;;;25.40;85.30;;;;;;4989431;28;20454;-71
2023/09/09 03:31:36;;;;;;;7.27;6.60;;;25.40;85.30;;;;;;4989143;28;20396;-71
2023/09/09 03:34:02;;;;;;;7.60;6.90;;;25.40;85.30;;;;;;4989658;28;20408;-71
2023/09/09 03:36:28;;;;;;;6.43;5.83;;;25.40;85.30;;;;;;4989375;28;20209;-71
2023/09/09 03:38:54;;;;;;;7.57;6.87;;;25.40;85.40;;;;;;4973226;28;20460;-71
2023/09/09 03:41:21;;;;;;;7.20;6.60;;;25.30;85.30;;;;;;4989486;28;20415;-71
2023/09/09 03:43:48;;;;;;;8.00;6.37;;;25.30;85.30;;;;;;4972968;28;20482;-71
2023/09/09 03:46:14;;;;;;;8.30;6.80;;;25.30;85.30;;;;;;4989096;28;20956;-71
2023/09/09 03:48:46;;;;;;;7.80;7.20;;;25.30;85.30;;;;;;4988428;28;20451;-71
2023/09/09 03:51:12;;;;;;;7.53;6.83;;;25.30;85.90;;;;;;4988447;28;20997;-71
2023/09/09 03:53:41;;;;;;;7.10;6.40;;;25.30;85.40;;;;;;4988798;28;20491;-71
2023/09/09 03:56:06;;;;;;;6.80;6.13;;;25.20;85.30;;;;;;4988433;28;20791;-71
2023/09/09 03:58:34;;;;;;;7.33;6.70;;;25.20;85.30;;;;;;4987559;28;20443;-71
2023/09/09 04:01:04;;;;;;;8.20;7.40;;;25.20;85.50;;;;;;4972865;28;20482;-71
2023/09/09 04:03:33;;;;;;;9.50;7.30;;;25.20;85.40;;;;;;4956310;28;20463;-71
2023/09/09 04:06:11;;;;;;;8.03;7.27;;;25.20;85.50;;;;;;4972254;28;20469;-71
2023/09/09 04:08:39;;;;;;;7.90;7.30;;;25.20;85.50;;;;;;4972182;28;20456;-71
2023/09/09 04:11:06;;;;;;;7.93;7.00;;;25.20;85.40;;;;;;5006018;28;20436;-71
2023/09/09 04:13:37;;;;;;;7.80;7.07;;;25.10;85.30;;;;;;4956569;28;20455;-71
2023/09/09 04:16:03;;;;;;;7.87;7.17;;;25.10;85.30;;;;;;4956563;28;20610;-71
2023/09/09 04:18:29;;;;;;;6.80;6.20;;;25.10;85.30;;;;;;4988297;28;21015;-71
2023/09/09 04:20:56;;;;;;;7.40;6.70;;;25.10;86.10;;;;;;4987951;28;20428;-71
2023/09/09 04:23:25;;;;;;;7.63;6.97;;;25.10;86.20;;;;;;4972055;28;21138;-71
2023/09/09 04:25:52;;;;;;;7.83;7.13;;;25.10;85.40;;;;;;4988366;28;20516;-71
2023/09/09 04:28:17;;;;;;;8.07;6.67;;;25.10;85.40;;;;;;4987288;28;21213;-71
2023/09/09 04:30:45;;;;;;;7.90;7.10;;;25.10;85.30;;;;;;4971662;28;20198;-71
2023/09/09 04:33:13;;;;;;;7.00;6.30;;;25.10;85.40;;;;;;4955569;28;20441;-71
2023/09/09 04:35:43;;;;;;;8.03;7.33;;;25.00;85.30;;;;;;4970812;28;20468;-71
2023/09/09 04:38:10;;;;;;;7.27;6.47;;;25.00;85.30;;;;;;4971563;28;20447;-71
2023/09/09 04:40:40;;;;;;;11.10;7.50;;;25.00;85.30;;;;;;4971572;28;20409;-70
2023/09/09 04:43:07;;;;;;;7.30;6.70;;;25.00;85.40;;;;;;4986998;28;20448;-71
2023/09/09 04:45:35;;;;;;;6.93;6.37;;;25.00;85.40;;;;;;4987268;28;21272;-70
2023/09/09 04:48:01;;;;;;;7.47;6.77;;;24.90;85.30;;;;;;4986836;28;20968;-71
2023/09/09 04:50:27;;;;;;;7.37;6.87;;;24.90;85.30;;;;;;4955005;28;20432;-70
2023/09/09 04:52:54;;;;;;;7.90;7.10;;;24.90;85.30;;;;;;4970982;28;20493;-71
2023/09/09 04:55:20;;;;;;;7.70;7.10;;;24.90;85.30;;;;;;4954409;28;20411;-70
2023/09/09 04:57:47;;;;;;;7.87;7.23;;;24.90;85.30;;;;;;5003690;28;20456;-70
2023/09/09 05:00:14;;;;;;;6.97;6.27;;;24.90;85.30;;;;;;4985607;28;20471;-71
2023/09/09 05:02:41;;;;;;;7.53;6.70;;;24.90;85.40;;;;;;5000327;28;20451;-70
2023/09/09 05:05:07;;;;;;;7.83;7.00;;;24.90;85.30;;;;;;5002959;28;20495;-70
2023/09/09 05:07:36;;;;;;;7.40;6.80;;;24.90;85.40;;;;;;4973846;28;20745;-75
2023/09/09 05:10:05;;;;;;;6.73;6.23;;;24.90;85.40;;;;;;4985520;28;20420;-73
2023/09/09 05:12:33;;;;;;;7.77;6.40;;;24.80;85.30;;;;;;4986303;28;20432;-73
2023/09/09 05:15:02;;;;;;;7.60;7.00;;;24.80;85.30;;;;;;4954391;28;20860;-73
2023/09/09 05:17:29;;;;;;;7.47;6.77;;;24.80;85.30;;;;;;4969907;28;21066;-74
2023/09/09 05:19:55;;;;;;;8.50;7.10;;;24.80;85.30;;;;;;4988878;28;20443;-73
2023/09/09 05:22:21;;;;;;;7.73;7.03;;;24.70;85.30;;;;;;4979097;28;20971;-72
2023/09/09 05:24:47;;;;;;;8.60;6.17;;;24.70;85.30;;;;;;4965431;28;21016;-73
2023/09/09 05:27:13;;;;;;;7.00;6.10;;;24.70;85.30;;;;;;4997939;28;20424;-72
2023/09/09 05:29:49;;;;;;;7.90;7.10;;;24.70;85.30;;;;;;5002197;28;20447;-73
2023/09/09 05:32:22;;;;;;;6.80;6.20;;;24.70;85.30;;;;;;4996349;28;20436;-73
2023/09/09 05:34:52;;;;;;;13.87;6.80;;;24.70;85.30;;;;;;4967647;28;20475;-73
2023/09/09 05:37:21;;;;;;;6.60;6.10;;;24.70;85.40;;;;;;4967183;28;20421;-72
2023/09/09 05:39:49;;;;;;;7.23;6.40;;;24.70;85.40;;;;;;4983955;28;20543;-73
2023/09/09 05:42:15;;;;;;;6.00;5.40;;;24.60;85.40;;;;;;4983381;28;20937;-72
2023/09/09 05:44:43;;;;;;;7.37;6.77;;;24.70;85.50;;;;;;4967446;28;20439;-73
2023/09/09 05:47:09;;;;;;;7.00;6.40;;;24.60;85.40;;;;;;4981475;28;20925;-73
2023/09/09 05:49:43;;;;;;;7.33;6.70;;;24.60;85.50;;;;;;4964587;28;20464;-73
2023/09/09 05:52:11;;;;;;;7.63;6.93;;;24.60;85.50;;;;;;4955265;28;20440;-72
2023/09/09 05:54:41;;;;;;;6.57;6.07;;;24.60;85.60;;;;;;4968932;28;20916;-73
2023/09/09 05:57:08;;;;;;;7.00;6.40;;;24.60;85.60;;;;;;4984862;28;20484;-73
2023/09/09 05:59:37;;;;;;;7.00;6.40;;;24.60;85.70;;;;;;4968978;28;20448;-73
2023/09/09 06:02:10;;;;;;;7.40;6.70;;;24.60;85.70;;;;;;4985289;28;20474;-74
2023/09/09 06:04:36;;;;;;;7.03;6.43;;;24.60;85.80;;;;;;4968537;28;20421;-73
2023/09/09 06:07:04;;;;;;;8.10;6.40;;;24.50;85.80;;;;;;5003386;28;20461;-73
2023/09/09 06:09:30;;;;;;;7.27;6.67;;;24.50;85.80;;;;;;5004611;28;20848;-73
2023/09/09 06:12:02;;;;;;;7.03;6.37;;;24.50;85.90;;;;;;4986702;28;20435;-73
2023/09/09 06:14:28;;;;;;;7.30;6.60;;;24.50;86.00;;;;;;4985893;28;21294;-73
2023/09/09 06:16:57;;;;;;;7.30;6.60;;;24.50;86.10;;;;;;4969959;28;20518;-73
2023/09/09 06:19:27;;;;;;;7.67;6.60;;;24.50;86.20;;;;;;4970647;28;20455;-74
2023/09/09 06:21:53;;;;;;;8.13;7.43;;;24.50;86.20;;;;;;4972956;28;21169;-73
2023/09/09 06:24:19;;;;;;;7.73;7.13;;;24.50;87.10;;;;;;4989814;28;20430;-73
2023/09/09 06:26:50;;;;;;;7.53;6.93;;;24.50;86.40;;;;;;4972754;28;20530;-73
2023/09/09 06:29:19;;;;;;;8.10;7.30;;;24.50;86.40;;;;;;5006059;28;20515;-73
2023/09/09 06:31:45;;;;;;;8.73;7.20;;;24.50;86.50;;;;;;4971956;28;21208;-73
2023/09/09 06:34:11;;;;;;;7.50;6.90;;;24.50;86.60;;;;;;4972256;28;20789;-73
2023/09/09 06:36:40;;;;;;;7.50;6.80;;;24.50;86.70;;;;;;4972765;28;20456;-73
2023/09/09 06:39:07;;;;;;;7.50;6.80;;;24.50;86.80;;;;;;4956289;28;20572;-74
2023/09/09 06:41:33;;;;;;;7.63;7.00;;;24.40;86.70;;;;;;5006207;28;20572;-73
2023/09/09 06:43:58;;;;;;;7.20;6.53;;;24.40;86.70;;;;;;4988346;28;20206;-73
2023/09/09 06:46:27;;;;;;;7.80;7.20;;;24.40;86.70;;;;;;5006122;28;20403;-73
2023/09/09 06:48:55;;;;;;;7.97;7.20;;;24.40;86.80;;;;;;4972123;28;20224;-73
2023/09/09 06:51:21;;;;;;;7.47;6.67;;;24.50;87.00;;;;;;4956400;28;20420;-73
2023/09/09 06:53:47;;;;;;;7.93;7.20;;;24.50;86.90;;;;;;4971911;28;20646;-73
2023/09/09 06:56:13;;;;;;;6.67;6.07;;;24.40;86.80;;;;;;5005577;28;20420;-72
2023/09/09 06:58:39;;;;;;;8.00;7.30;;;24.40;86.80;;;;;;5005825;28;20540;-73
2023/09/09 07:01:08;;;;;;;9.37;7.30;;;24.40;86.80;;;;;;5006024;28;20508;-73
2023/09/09 07:03:34;;;;;;;7.83;7.13;;;24.40;86.90;;;;;;5006496;28;20535;-73
2023/09/09 07:06:07;;;;;;;7.20;6.60;;;24.40;86.90;;;;;;4972676;28;21244;-73
2023/09/09 07:08:40;;;;;;;8.70;7.90;;;24.40;86.90;;;;;;4972399;28;20592;-73
2023/09/09 07:11:08;;;;;;;8.40;7.70;;;24.40;87.00;;;;;;4988043;28;20454;-73
2023/09/09 07:13:36;;;;;;;7.40;6.70;;;24.40;86.90;;;;;;4955602;28;20547;-73
2023/09/09 07:16:06;;;;;;;7.40;6.80;;;24.40;87.10;;;;;;5005830;28;21170;-73
2023/09/09 07:18:33;;;;;;;7.33;6.67;;;24.40;87.00;;;;;;4988460;28;21259;-73
2023/09/09 07:20:59;;;;;;;6.93;6.43;;;24.40;87.10;;;;;;4989106;28;20415;-73
2023/09/09 07:23:25;;;;;;;8.07;7.20;;;24.40;87.00;;;;;;4971817;28;21081;-73
2023/09/09 07:25:52;;;;;;;7.17;6.57;;;24.40;87.10;;;;;;4971586;28;20516;-73
2023/09/09 07:28:23;;;;;;;7.57;6.83;;;24.40;87.10;;;;;;4955577;28;21101;-73
2023/09/09 07:30:51;;;;;;;7.63;7.00;;;24.40;87.90;;;;;;4971082;28;20447;-72
2023/09/09 07:33:18;;;;;;;6.70;6.00;;;24.40;87.10;;;;;;4955445;28;20428;-73
2023/09/09 07:35:47;;;;;;;7.83;7.13;;;24.40;87.10;;;;;;4971822;28;20559;-73
2023/09/09 07:38:13;;;;;;;7.13;6.53;;;24.40;87.00;;;;;;4987764;28;20440;-73
2023/09/09 07:40:39;;;;;;;7.43;6.83;;;24.40;87.10;;;;;;5005433;28;20400;-73
2023/09/09 07:43:05;;;;;;;7.70;7.00;;;24.40;87.00;;;;;;4971359;28;20452;-73
2023/09/09 07:45:34;;;;;;;6.97;6.40;;;24.40;87.00;;;;;;5004812;28;20511;-70
2023/09/09 07:48:05;;;;;;;8.60;7.80;;;24.40;87.00;;;;;;5005146;28;20440;-73
2023/09/09 07:50:33;;;;;;;7.90;7.20;;;24.40;87.00;;;;;;4987292;28;20438;-70
2023/09/09 07:53:00;;;;;;;8.20;7.40;;;24.40;87.00;;;;;;4970751;28;20922;-75
2023/09/09 07:55:25;;;;;;;8.47;7.73;;;24.40;87.00;;;;;;4987140;28;20409;-73
2023/09/09 07:57:51;;;;;;;6.93;6.23;;;24.40;86.90;;;;;;4987814;28;20531;-76
2023/09/09 08:00:20;;;;;;;7.60;7.00;;;24.40;87.00;;;;;;5005111;28;20216;-72
2023/09/09 08:02:49;;;;;;;7.60;6.97;;;24.40;86.90;;;;;;4986256;28;20456;-76
2023/09/09 08:05:17;;;;;;;8.00;7.30;;;24.40;86.90;;;;;;5004636;28;20969;-74
2023/09/09 08:07:45;;;;;;;7.40;6.73;;;24.40;86.80;;;;;;4969824;28;20466;-72
2023/09/09 08:10:12;;;;;;;8.40;7.60;;;24.40;87.40;;;;;;4986512;28;20790;-72
2023/09/09 08:12:40;;;;;;;8.17;7.47;;;24.40;86.80;;;;;;4986221;28;20956;-72
2023/09/09 08:15:12;;;;;;;8.20;7.50;;;24.40;86.80;;;;;;4969213;28;20448;-73
2023/09/09 08:17:40;;;;;;;8.13;7.43;;;24.40;86.90;;;;;;4985367;28;20220;-72
2023/09/09 08:20:08;;;;;;;7.17;6.67;;;24.40;86.70;;;;;;4969719;28;20913;-74
2023/09/09 08:22:34;;;;;;;8.13;7.33;;;24.40;86.70;;;;;;4970037;28;21038;-73
2023/09/09 08:25:04;;;;;;;7.07;6.50;;;24.40;86.80;;;;;;4986577;28;20462;-73
2023/09/09 08:27:30;;;;;;;7.93;7.27;;;24.40;86.80;;;;;;4970241;28;20438;-72
2023/09/09 08:29:57;;;;;;;8.10;7.50;;;24.40;87.00;;;;;;4986032;28;20460;-72
2023/09/09 08:32:25;;;;;;;8.40;7.60;;;24.40;86.90;;;;;;4970793;28;21264;-73
2023/09/09 08:34:54;;;;;;;8.23;7.33;;;24.50;87.20;;;;;;4970055;28;20413;-72
2023/09/09 08:37:25;;;;;;;7.63;7.03;;;24.40;87.00;;;;;;5003986;28;20567;-73
2023/09/09 08:39:57;;;;;;;8.40;7.70;;;24.50;88.00;;;;;;4970000;28;20456;-73
2023/09/09 08:42:28;;;;;;;8.30;7.70;;;24.50;87.30;;;;;;4970233;28;20563;-73
2023/09/09 08:45:12;;;;;;;9.33;8.10;;;24.50;87.30;;;;;;5003240;28;20777;-76
2023/09/09 08:47:50;;;;;;;8.03;7.43;;;24.50;87.50;;;;;;4986081;28;20420;-75
2023/09/09 08:50:26;;;;;;;9.00;7.50;;;24.50;87.70;;;;;;5005285;28;20925;-76
2023/09/09 08:52:58;;;;;;;9.57;7.63;;;24.50;87.80;;;;;;4970563;28;21303;-76
2023/09/09 08:55:27;;;;;;;8.03;7.30;;;24.50;87.70;;;;;;4986001;28;20455;-75
2023/09/09 08:57:53;;;;;;;8.30;7.50;;;24.60;88.00;;;;;;5038864;23;20515;-75
2023/09/09 09:00:22;;;;;;;9.20;8.40;;;24.60;88.10;;;;;;4978285;28;20485;-78
2023/09/09 09:02:49;;;;;;;9.33;8.57;;;24.60;88.20;;;;;;5003392;28;20870;-75
2023/09/09 09:05:20;;;;;;;9.13;8.33;;;24.60;88.10;;;;;;4984573;28;20573;-77
2023/09/09 09:07:46;;;;;;;9.00;8.20;;;24.60;88.30;;;;;;4984920;28;20746;-76
2023/09/09 09:10:14;;;;;;;9.30;7.93;;;24.60;88.40;;;;;;4968762;28;20451;-76
2023/09/09 09:12:42;;;;;;;9.33;8.33;;;24.70;88.40;;;;;;5002570;28;20260;-72
2023/09/09 09:15:10;;;;;;;8.90;8.20;;;24.70;88.40;;;;;;4967942;28;20519;-73
2023/09/09 09:17:44;;;;;;;8.60;7.80;;;24.70;88.60;;;;;;4969212;28;20449;-72
2023/09/09 09:20:38;;;;;;;9.30;8.50;;;24.70;88.80;;;;;;5002764;28;20478;-72
2023/09/09 09:23:05;;;;;;;8.77;7.97;;;24.80;89.00;;;;;;4984354;28;20479;-75
2023/09/09 09:25:37;;;;;;;13.40;8.67;;;24.80;89.10;;;;;;4985323;28;20433;-76
2023/09/09 09:28:08;;;;;;;9.27;8.37;;;24.80;89.20;;;;;;4985229;28;20440;-72
2023/09/09 09:30:38;;;;;;;8.60;7.90;;;24.80;89.30;;;;;;4984189;28;20440;-72
2023/09/09 09:33:04;;;;;;;11.63;8.67;;;24.90;89.30;;;;;;5002298;28;20563;-76
2023/09/09 09:35:32;;;;;;;10.23;9.23;;;24.90;89.50;;;;;;5001868;28;20512;-74
2023/09/09 09:38:00;;;;;;;9.67;8.70;;;24.90;89.40;;;;;;4984885;28;20451;-73
2023/09/09 09:40:27;;;;;;;9.50;8.70;;;24.90;89.50;;;;;;4984612;28;20420;-74
2023/09/09 09:42:59;;;;;;;11.33;9.27;;;25.00;89.80;;;;;;4968554;28;20447;-75
2023/09/09 09:45:26;;;;;;;9.90;8.30;;;25.00;89.70;;;;;;4967786;28;20497;-75
2023/09/09 09:47:53;;;;;;;8.90;8.00;;;25.00;89.90;;;;;;5001725;28;20482;-74
2023/09/09 09:50:34;;;;;;;10.10;9.23;;;25.00;89.80;;;;;;4985569;28;20901;-76
2023/09/09 09:53:00;;;;;;;10.33;8.10;;;25.10;89.90;;;;;;5002543;28;20551;-74
2023/09/09 09:55:30;;;;;;;10.13;9.03;;;25.10;90.10;;;;;;4984884;28;20519;-75
2023/09/09 09:57:58;;;;;;;9.23;8.20;;;25.10;90.00;;;;;;4989048;28;20480;-76
2023/09/09 10:00:26;;;;;;;9.70;8.80;;;25.20;90.00;;;;;;4968363;28;20511;-74
2023/09/09 10:02:58;;;;;;;12.23;9.17;;;25.20;90.00;;;;;;4951411;28;20571;-75
2023/09/09 10:05:25;;;;;;;11.60;8.23;;;25.20;90.10;;;;;;4951800;28;20452;-75
2023/09/09 10:08:03;;;;;;;10.00;8.87;;;25.20;90.20;;;;;;4984990;28;20685;-75
2023/09/09 10:10:33;;;;;;;9.73;8.80;;;25.30;90.20;;;;;;5001381;28;20427;-75
2023/09/09 10:13:11;;;;;;;10.23;8.77;;;25.30;90.30;;;;;;4985536;28;20459;-78
2023/09/09 10:15:40;;;;;;;11.20;9.40;;;25.30;90.30;;;;;;5003679;28;20416;-76
2023/09/09 10:18:12;;;;;;;11.90;10.13;;;25.40;90.50;;;;;;5003756;28;20934;-78
2023/09/09 10:20:41;;;;;;;10.20;9.30;;;25.40;90.40;;;;;;4954003;28;20424;-75
2023/09/09 10:23:11;;;;;;;12.93;10.23;;;25.40;90.50;;;;;;4983989;28;20468;-74
2023/09/09 10:25:39;;;;;;;11.40;10.30;;;25.50;90.60;;;;;;4983427;28;20820;-76
2023/09/09 10:28:10;;;;;;;10.70;9.70;;;25.50;90.50;;;;;;5001229;28;20479;-76
2023/09/09 10:30:37;;;;;;;10.13;9.23;;;25.50;90.50;;;;;;4990144;28;21334;-76
2023/09/09 10:33:07;;;;;;;12.90;9.60;;;25.50;90.40;;;;;;4964253;28;20433;-76
2023/09/09 10:35:37;;;;;;;11.50;9.77;;;25.60;90.50;;;;;;4981412;28;20417;-76
2023/09/09 10:38:07;;;;;;;11.60;10.47;;;25.60;90.50;;;;;;4976447;28;20456;-76
2023/09/09 10:40:37;;;;;;;10.50;9.60;;;25.70;90.50;;;;;;4967691;28;20419;-76
2023/09/09 10:43:06;;;;;;;9.97;9.07;;;25.70;90.50;;;;;;4967328;28;20538;-76
2023/09/09 10:45:41;;;;;;;10.23;8.97;;;25.70;90.50;;;;;;4983734;28;20455;-76
2023/09/09 10:48:10;;;;;;;10.90;9.90;;;25.70;90.40;;;;;;5000710;28;20532;-76
2023/09/09 10:50:45;;;;;;;10.90;9.80;;;25.80;90.50;;;;;;4983776;28;20932;-76
2023/09/09 10:53:28;;;;;;;10.10;9.10;;;25.80;90.40;;;;;;4983564;28;20424;-76
2023/09/09 10:55:58;;;;;;;10.47;9.53;;;25.80;90.50;;;;;;4984220;28;20471;-76
2023/09/09 10:58:37;;;;;;;11.10;9.97;;;25.90;90.50;;;;;;4966678;28;20480;-76
2023/09/09 11:01:09;;;;;;;12.83;9.43;;;25.90;90.50;;;;;;4967564;28;21011;-76
2023/09/09 11:03:45;;;;;;;10.63;9.63;;;25.90;90.50;;;;;;4983485;28;20910;-76
2023/09/09 11:06:29;;;;;;;9.60;8.70;;;26.00;90.60;;;;;;4983486;28;20454;-76
2023/09/09 11:08:58;;;;;;;13.77;9.97;;;26.00;90.60;;;;;;4970789;28;20499;-76
2023/09/09 11:11:30;;;;;;;15.57;10.50;;;26.00;90.70;;;;;;4986973;28;20404;-76
2023/09/09 11:14:08;;;;;;;10.87;9.87;;;26.10;90.60;;;;;;4971051;28;20864;-76
2023/09/09 11:16:35;;;;;;;12.83;10.90;;;26.10;90.50;;;;;;5004965;28;20484;-76
2023/09/09 11:19:02;;;;;;;10.80;9.70;;;26.10;90.70;;;;;;4986628;28;20964;-76
2023/09/09 11:21:33;;;;;;;12.10;11.00;;;26.20;90.70;;;;;;4986062;28;20448;-75
2023/09/09 11:24:00;;;;;;;10.70;9.60;;;26.20;90.70;;;;;;5004412;28;21131;-78
2023/09/09 11:26:27;;;;;;;10.97;9.87;;;26.20;90.70;;;;;;5069136;23;21088;-73
2023/09/09 11:28:54;;;;;;;12.43;10.30;;;26.20;90.60;;;;;;4990328;28;20454;-72
2023/09/09 11:31:20;;;;;;;13.77;11.20;;;26.30;91.70;;;;;;5007161;28;20499;-71
2023/09/09 11:33:46;;;;;;;12.30;10.73;;;26.30;93.50;;;;;;4974762;28;20869;-72
2023/09/09 11:36:18;;;;;;;16.07;11.00;;;26.40;94.10;;;;;;4972528;28;20427;-72
2023/09/09 11:38:44;;;;;;;12.23;10.93;;;26.50;94.50;;;;;;4990768;28;20462;-72
2023/09/09 11:41:24;;;;;;;18.37;10.87;;;26.60;94.30;;;;;;5007431;28;20438;-72
2023/09/09 11:44:09;;;;;;;14.43;11.00;;;26.80;93.50;;;;;;5024730;28;20586;-71
2023/09/09 11:46:36;;;;;;;15.53;10.53;;;27.00;93.10;;;;;;4990911;28;20526;-72
2023/09/09 11:49:08;;;;;;;13.87;11.67;;;27.10;93.60;;;;;;4991066;28;20447;-72
2023/09/09 11:51:37;;;;;;;12.00;10.07;;;27.30;93.00;;;;;;5024949;28;20416;-72
2023/09/09 11:54:06;;;;;;;17.67;11.50;;;27.40;92.60;;;;;;4990815;28;20448;-71
2023/09/09 11:56:33;;;;;;;15.17;11.90;;;27.40;92.80;;;;;;4991262;28;20427;-72
2023/09/09 11:59:06;;;;;;;10.77;9.03;;;27.50;92.40;;;;;;5024795;28;20447;-72
2023/09/09 12:01:45;;;;;;;18.00;10.73;;;27.60;92.00;;;;;;4990328;28;20455;-72
2023/09/09 12:04:15;;;;;;;12.50;9.90;;;27.70;92.00;;;;;;5006742;28;21433;-72
2023/09/09 12:06:45;;;;;;;10.83;9.67;;;27.80;91.90;;;;;;5006875;28;20856;-72
2023/09/09 12:09:14;;;;;;;10.63;9.60;;;27.90;92.30;;;;;;4990519;28;20446;-72
2023/09/09 12:11:42;;;;;;;12.77;9.43;;;28.00;92.40;;;;;;5006677;28;20414;-72
2023/09/09 12:14:11;;;;;;;16.13;9.87;;;28.10;92.10;;;;;;4990381;28;20558;-72
2023/09/09 12:16:40;;;;;;;19.13;9.70;;;28.20;90.70;;;;;;5024454;28;20900;-72
2023/09/09 12:19:12;;;;;;;12.73;9.50;;;28.20;88.80;;;;;;5005468;28;20816;-72
2023/09/09 12:21:46;;;;;;;23.40;10.00;;;28.20;89.00;;;;;;5006367;28;20454;-72
2023/09/09 12:24:12;;;;;;;14.10;10.27;;;28.30;90.00;;;;;;5024706;28;20447;-72
2023/09/09 12:26:38;;;;;;;16.00;10.60;;;28.40;88.30;;;;;;4990431;28;20525;-72
2023/09/09 12:29:11;;;;;;;21.63;11.93;;;28.40;86.90;;;;;;5006804;28;20554;-72
2023/09/09 12:31:58;;;;;;;11.23;9.37;;;28.50;88.80;;;;;;4987995;28;20404;-73
2023/09/09 12:34:25;;;;;;;12.60;10.10;;;28.50;90.30;;;;;;5004859;28;20426;-74
2023/09/09 12:36:57;;;;;;;11.17;9.80;;;28.60;88.80;;;;;;5023373;28;20419;-73
2023/09/09 12:39:25;;;;;;;16.87;10.50;;;28.60;89.00;;;;;;5021631;28;20458;-72
2023/09/09 12:42:05;;;;;;;16.13;10.03;;;28.70;87.60;;;;;;5022969;28;20439;-74
2023/09/09 12:44:50;;;;;;;18.60;10.70;;;28.80;86.30;;;;;;5003741;28;20465;-71
2023/09/09 12:47:24;;;;;;;15.53;9.10;;;28.80;85.30;;;;;;4989127;28;20451;-72
2023/09/09 12:49:55;;;;;;;12.63;9.17;;;28.90;83.80;;;;;;5005320;28;21357;-73
2023/09/09 12:52:21;;;;;;;13.03;9.03;;;28.90;85.00;;;;;;5022524;28;20443;-70